Time;durP1;ratioP1;P1;durP2;ratioP2;P2;SDS_P1;SDS_P2;PMS_P1;PMS_P2;Temp;Humidity;BMP_temperature;BMP_pressure;BME280_temperature;BME280_humidity;BME280_pressure;Samples;Min_cycle;Max_cycle;Signal;HPM_P1;HPM_P2
2022/03/09 00:00:48;;;;;;;3.03;1.40;;;;;;;;;;7390482;19;20028;-76
2022/03/09 00:03:14;;;;;;;1.90;1.50;;;;;;;;;;7391964;19;20023;-75
2022/03/09 00:05:39;;;;;;;2.55;1.70;;;;;;;;;;7393777;19;19999;-75
2022/03/09 00:08:04;;;;;;;4.20;1.88;;;;;;;;;;7396520;19;20679;-75
2022/03/09 00:10:30;;;;;;;3.75;1.73;;;;;;;;;;7394653;19;20031;-76
2022/03/09 00:12:55;;;;;;;3.83;1.80;;;;;;;;;;7404114;19;20465;-76
2022/03/09 00:15:20;;;;;;;3.10;1.50;;;;;;;;;;7400587;19;20035;-76
2022/03/09 00:17:46;;;;;;;4.70;1.45;;;;;;;;;;7403531;19;20003;-76
2022/03/09 00:20:11;;;;;;;3.17;1.50;;;;;;;;;;7401077;19;20081;-76
2022/03/09 00:22:36;;;;;;;5.82;1.70;;;;;;;;;;7403388;19;20015;-76
2022/03/09 00:25:02;;;;;;;3.20;1.50;;;;;;;;;;7397594;19;20003;-75
2022/03/09 00:27:30;;;;;;;2.85;1.63;;;;;;;;;;7394579;19;20005;-75
2022/03/09 00:29:55;;;;;;;3.40;1.80;;;;;;;;;;7396818;19;20482;-76
2022/03/09 00:32:21;;;;;;;3.30;1.70;;;;;;;;;;7396173;19;20070;-75
2022/03/09 00:34:46;;;;;;;3.47;1.75;;;;;;;;;;7395067;19;20334;-76
2022/03/09 00:37:11;;;;;;;5.88;1.77;;;;;;;;;;7397478;19;20108;-75
2022/03/09 00:39:36;;;;;;;3.92;1.67;;;;;;;;;;7396420;19;20017;-75
2022/03/09 00:42:02;;;;;;;5.38;1.90;;;;;;;;;;7397371;19;21256;-75
2022/03/09 00:44:27;;;;;;;6.25;2.15;;;;;;;;;;7398880;19;20025;-75
2022/03/09 00:46:53;;;;;;;3.20;1.52;;;;;;;;;;7398682;19;20017;-75
2022/03/09 00:49:18;;;;;;;4.55;2.28;;;;;;;;;;7396680;19;20014;-74
2022/03/09 00:51:43;;;;;;;4.80;1.50;;;;;;;;;;7396137;19;20182;-76
2022/03/09 00:54:08;;;;;;;3.63;1.63;;;;;;;;;;7393356;19;20010;-75
2022/03/09 00:56:34;;;;;;;4.97;1.60;;;;;;;;;;7397041;19;20013;-74
2022/03/09 00:58:59;;;;;;;4.18;1.42;;;;;;;;;;7396580;19;20346;-73
2022/03/09 01:01:24;;;;;;;2.38;1.50;;;;;;;;;;7397416;19;20018;-74
2022/03/09 01:03:50;;;;;;;4.55;1.70;;;;;;;;;;7395487;19;20007;-76
2022/03/09 01:06:15;;;;;;;3.40;1.45;;;;;;;;;;7392223;19;20006;-76
2022/03/09 01:08:41;;;;;;;3.05;1.42;;;;;;;;;;7391496;19;20039;-74
2022/03/09 01:11:06;;;;;;;4.75;1.52;;;;;;;;;;7395381;19;20011;-74
2022/03/09 01:13:31;;;;;;;3.90;1.50;;;;;;;;;;7391728;19;20021;-75
2022/03/09 01:15:57;;;;;;;2.30;1.50;;;;;;;;;;7391006;19;20009;-74
2022/03/09 01:18:22;;;;;;;3.72;1.75;;;;;;;;;;7394042;19;20003;-75
2022/03/09 01:20:47;;;;;;;5.00;1.38;;;;;;;;;;7395971;19;20010;-75
2022/03/09 01:23:13;;;;;;;4.75;2.17;;;;;;;;;;7395819;19;20011;-74
2022/03/09 01:25:38;;;;;;;3.42;1.30;;;;;;;;;;7394862;19;20003;-75
2022/03/09 01:28:03;;;;;;;2.60;1.48;;;;;;;;;;7394174;19;20018;-75
2022/03/09 01:30:29;;;;;;;3.53;1.38;;;;;;;;;;7395625;19;20489;-74
2022/03/09 01:32:54;;;;;;;5.03;1.55;;;;;;;;;;7395140;19;20078;-74
2022/03/09 01:35:19;;;;;;;3.35;1.25;;;;;;;;;;7394023;19;20006;-75
2022/03/09 01:37:48;;;;;;;3.55;1.73;;;;;;;;;;7395505;19;20031;-75
2022/03/09 01:40:14;;;;;;;4.13;1.77;;;;;;;;;;7394735;19;20481;-74
2022/03/09 01:42:40;;;;;;;2.80;1.27;;;;;;;;;;7395299;19;20062;-74
2022/03/09 01:45:08;;;;;;;5.20;2.00;;;;;;;;;;7395005;19;20479;-74
2022/03/09 01:47:33;;;;;;;4.22;1.70;;;;;;;;;;7392946;19;20010;-75
2022/03/09 01:49:59;;;;;;;6.78;1.65;;;;;;;;;;7392755;19;20007;-74
2022/03/09 01:52:25;;;;;;;2.92;1.60;;;;;;;;;;7392876;19;20038;-74
2022/03/09 01:54:52;;;;;;;3.10;1.42;;;;;;;;;;7392688;19;20095;-74
2022/03/09 01:57:18;;;;;;;4.78;1.60;;;;;;;;;;7392388;19;20380;-75
2022/03/09 01:59:43;;;;;;;5.10;1.40;;;;;;;;;;7390344;19;20134;-74
2022/03/09 02:02:08;;;;;;;2.67;1.08;;;;;;;;;;7391972;19;20133;-75
2022/03/09 02:04:34;;;;;;;3.05;1.45;;;;;;;;;;7390998;19;20006;-75
2022/03/09 02:06:59;;;;;;;3.03;1.40;;;;;;;;;;7391047;19;20003;-75
2022/03/09 02:12:17;;;;;;;4.75;1.42;;;;;;;;;;7395583;19;20017;-74
2022/03/09 02:14:45;;;;;;;4.80;1.67;;;;;;;;;;7392609;19;20026;-74
2022/03/09 02:17:13;;;;;;;4.82;1.95;;;;;;;;;;7393720;19;20443;-74
2022/03/09 02:19:40;;;;;;;4.00;1.60;;;;;;;;;;7391428;19;20014;-74
2022/03/09 02:22:32;;;;;;;7.38;2.08;;;;;;;;;;7393163;19;20010;-74
2022/03/09 02:24:58;;;;;;;4.47;1.83;;;;;;;;;;7392328;19;20078;-75
2022/03/09 02:27:23;;;;;;;3.47;1.80;;;;;;;;;;7392831;19;20015;-75
2022/03/09 02:29:50;;;;;;;3.90;1.70;;;;;;;;;;7391685;19;20105;-74
2022/03/09 02:32:16;;;;;;;3.80;1.38;;;;;;;;;;7391391;19;20391;-74
2022/03/09 02:34:41;;;;;;;3.25;1.60;;;;;;;;;;7390937;19;20009;-75
2022/03/09 02:37:07;;;;;;;2.47;1.40;;;;;;;;;;7392870;19;20069;-75
2022/03/09 02:39:32;;;;;;;1.95;1.10;;;;;;;;;;7390381;19;20031;-74
2022/03/09 02:41:58;;;;;;;6.15;1.63;;;;;;;;;;7392781;19;20027;-74
2022/03/09 02:44:23;;;;;;;3.15;1.73;;;;;;;;;;7390975;19;20806;-75
2022/03/09 02:46:49;;;;;;;3.03;1.70;;;;;;;;;;7390717;19;20063;-74
2022/03/09 02:49:14;;;;;;;3.28;1.42;;;;;;;;;;7387210;19;20023;-75
2022/03/09 02:51:39;;;;;;;2.60;1.40;;;;;;;;;;7386488;19;20676;-76
2022/03/09 02:54:04;;;;;;;3.15;1.70;;;;;;;;;;7390544;19;20104;-75
2022/03/09 02:56:30;;;;;;;2.85;1.35;;;;;;;;;;7390269;19;20010;-75
2022/03/09 02:58:56;;;;;;;3.00;1.40;;;;;;;;;;7389566;19;20002;-75
2022/03/09 03:01:21;;;;;;;4.65;1.50;;;;;;;;;;7390520;19;20385;-74
2022/03/09 03:03:46;;;;;;;3.17;1.33;;;;;;;;;;7390343;19;20010;-74
2022/03/09 03:06:12;;;;;;;5.28;1.63;;;;;;;;;;7385026;19;20047;-74
2022/03/09 03:08:38;;;;;;;2.63;1.48;;;;;;;;;;7388110;19;20029;-75
2022/03/09 03:11:06;;;;;;;3.30;1.60;;;;;;;;;;7388029;19;20007;-77
2022/03/09 03:13:31;;;;;;;3.33;1.70;;;;;;;;;;7390878;19;19999;-77
2022/03/09 03:15:56;;;;;;;3.58;1.40;;;;;;;;;;7388683;19;20014;-75
2022/03/09 03:18:22;;;;;;;3.30;1.60;;;;;;;;;;7390241;19;20010;-76
2022/03/09 03:20:48;;;;;;;2.08;1.50;;;;;;;;;;7389389;19;20344;-76
2022/03/09 03:23:13;;;;;;;5.85;1.55;;;;;;;;;;7389508;19;20363;-75
2022/03/09 03:25:39;;;;;;;3.92;1.52;;;;;;;;;;7388060;19;20497;-75
2022/03/09 03:28:04;;;;;;;3.47;1.58;;;;;;;;;;7389482;19;20003;-75
2022/03/09 03:30:29;;;;;;;3.40;1.58;;;;;;;;;;7388495;19;20525;-76
2022/03/09 03:32:54;;;;;;;3.88;1.65;;;;;;;;;;7389124;19;20003;-75
2022/03/09 03:35:20;;;;;;;5.15;1.88;;;;;;;;;;7388154;19;20010;-75
2022/03/09 03:37:45;;;;;;;4.15;1.63;;;;;;;;;;7390480;19;20023;-76
2022/03/09 03:40:11;;;;;;;3.40;1.20;;;;;;;;;;7395449;19;20031;-76
2022/03/09 03:42:36;;;;;;;3.92;1.65;;;;;;;;;;7396229;19;20027;-76
2022/03/09 03:45:02;;;;;;;3.67;1.60;;;;;;;;;;7395505;19;20411;-75
2022/03/09 03:47:27;;;;;;;2.88;1.50;;;;;;;;;;7395892;19;20508;-77
2022/03/09 03:49:52;;;;;;;4.93;1.55;;;;;;;;;;7395937;19;20018;-76
2022/03/09 03:52:19;;;;;;;4.70;1.60;;;;;;;;;;7395924;19;20031;-76
2022/03/09 03:54:44;;;;;;;2.78;1.55;;;;;;;;;;7394643;19;20363;-76
2022/03/09 03:57:09;;;;;;;2.88;1.40;;;;;;;;;;7407276;19;20023;-74
2022/03/09 03:59:35;;;;;;;2.33;1.25;;;;;;;;;;7421853;19;20006;-74
2022/03/09 04:02:00;;;;;;;3.88;1.80;;;;;;;;;;7425791;19;20002;-74
2022/03/09 04:04:25;;;;;;;4.18;1.63;;;;;;;;;;7421960;19;20018;-74
2022/03/09 04:06:50;;;;;;;2.83;1.52;;;;;;;;;;7412468;19;19994;-77
2022/03/09 04:09:16;;;;;;;5.43;1.60;;;;;;;;;;7398819;19;20389;-76
2022/03/09 04:11:41;;;;;;;3.38;1.60;;;;;;;;;;7394084;19;20006;-77
2022/03/09 04:14:07;;;;;;;4.57;1.70;;;;;;;;;;7397481;19;20053;-77
2022/03/09 04:16:32;;;;;;;2.47;1.52;;;;;;;;;;7393330;19;19999;-76
2022/03/09 04:18:57;;;;;;;3.42;1.77;;;;;;;;;;7394934;19;20027;-76
2022/03/09 04:21:22;;;;;;;4.20;1.50;;;;;;;;;;7394826;19;19995;-76
2022/03/09 04:23:48;;;;;;;5.45;2.20;;;;;;;;;;7395348;19;20011;-77
2022/03/09 04:26:13;;;;;;;3.38;1.73;;;;;;;;;;7387442;19;20337;-77
2022/03/09 04:28:38;;;;;;;4.93;2.00;;;;;;;;;;7392104;19;20014;-76
2022/03/09 04:31:04;;;;;;;4.40;1.85;;;;;;;;;;7393433;19;20006;-76
2022/03/09 04:33:29;;;;;;;3.20;1.92;;;;;;;;;;7394047;19;19995;-76
2022/03/09 04:35:54;;;;;;;6.95;1.88;;;;;;;;;;7391292;19;20047;-76
2022/03/09 04:38:19;;;;;;;3.50;1.70;;;;;;;;;;7393316;19;20110;-75
2022/03/09 04:40:45;;;;;;;3.92;1.60;;;;;;;;;;7394903;19;20022;-76
2022/03/09 04:43:10;;;;;;;3.88;1.75;;;;;;;;;;7394253;19;20017;-76
2022/03/09 04:45:35;;;;;;;3.72;1.52;;;;;;;;;;7391350;19;20022;-75
2022/03/09 04:48:01;;;;;;;5.20;1.80;;;;;;;;;;7393363;19;20010;-76
2022/03/09 04:50:26;;;;;;;3.90;1.70;;;;;;;;;;7387488;19;20090;-76
2022/03/09 04:52:52;;;;;;;3.70;1.85;;;;;;;;;;7391223;19;20014;-75
2022/03/09 04:55:17;;;;;;;5.72;1.60;;;;;;;;;;7391999;19;20123;-75
2022/03/09 04:57:42;;;;;;;3.10;1.40;;;;;;;;;;7392968;19;20701;-76
2022/03/09 05:00:09;;;;;;;3.88;1.90;;;;;;;;;;7393000;19;20015;-76
2022/03/09 05:02:35;;;;;;;5.35;1.90;;;;;;;;;;7393208;19;20014;-76
2022/03/09 05:05:00;;;;;;;5.40;1.83;;;;;;;;;;7392697;19;20037;-76
2022/03/09 05:07:26;;;;;;;4.20;1.67;;;;;;;;;;7392856;19;20308;-76
2022/03/09 05:09:51;;;;;;;6.28;2.13;;;;;;;;;;7388777;19;20003;-76
2022/03/09 05:12:16;;;;;;;4.70;1.58;;;;;;;;;;7392673;19;20014;-76
2022/03/09 05:14:42;;;;;;;5.75;2.08;;;;;;;;;;7394047;19;20559;-77
2022/03/09 05:17:07;;;;;;;3.30;1.77;;;;;;;;;;7394317;19;20074;-77
2022/03/09 05:19:32;;;;;;;3.50;1.70;;;;;;;;;;7390424;19;20018;-75
2022/03/09 05:21:57;;;;;;;5.60;1.90;;;;;;;;;;7391338;19;20139;-75
2022/03/09 05:24:23;;;;;;;3.17;1.80;;;;;;;;;;7392382;19;20023;-75
2022/03/09 05:26:48;;;;;;;4.57;1.70;;;;;;;;;;7391778;19;20090;-75
2022/03/09 05:29:14;;;;;;;4.85;1.55;;;;;;;;;;7391644;19;20404;-76
2022/03/09 05:31:40;;;;;;;4.45;1.67;;;;;;;;;;7391940;19;20003;-75
2022/03/09 05:34:06;;;;;;;5.55;2.35;;;;;;;;;;7394190;19;20369;-75
2022/03/09 05:36:31;;;;;;;7.57;2.53;;;;;;;;;;7389780;19;20436;-76
2022/03/09 05:38:57;;;;;;;5.70;2.03;;;;;;;;;;7392151;19;20763;-75
2022/03/09 05:41:22;;;;;;;4.68;2.10;;;;;;;;;;7390717;19;20002;-76
2022/03/09 05:43:50;;;;;;;4.05;1.58;;;;;;;;;;7390890;19;20062;-76
2022/03/09 05:46:15;;;;;;;8.00;1.80;;;;;;;;;;7388738;19;20326;-76
2022/03/09 05:48:40;;;;;;;7.57;2.50;;;;;;;;;;7390756;19;20002;-76
2022/03/09 05:51:06;;;;;;;5.78;2.50;;;;;;;;;;7391076;19;20010;-75
2022/03/09 05:53:31;;;;;;;6.93;2.80;;;;;;;;;;7391303;19;20011;-75
2022/03/09 05:55:56;;;;;;;6.97;2.60;;;;;;;;;;7391566;19;20014;-75
2022/03/09 05:58:21;;;;;;;7.07;2.40;;;;;;;;;;7389128;19;19998;-75
2022/03/09 06:00:47;;;;;;;8.20;3.13;;;;;;;;;;7389630;19;20002;-75
2022/03/09 06:03:12;;;;;;;7.75;2.58;;;;;;;;;;7390679;19;19998;-75
2022/03/09 06:05:37;;;;;;;6.63;2.55;;;;;;;;;;7391943;19;20077;-75
2022/03/09 06:08:03;;;;;;;5.85;1.85;;;;;;;;;;7390288;19;20010;-75
2022/03/09 06:10:28;;;;;;;5.30;2.20;;;;;;;;;;7390251;19;20547;-75
2022/03/09 06:12:53;;;;;;;3.75;2.10;;;;;;;;;;7391329;19;20078;-75
2022/03/09 06:15:19;;;;;;;5.28;2.00;;;;;;;;;;7359324;19;20002;-76
2022/03/09 06:17:49;;;;;;;4.00;1.77;;;;;;;;;;7392067;19;20027;-76
2022/03/09 06:20:17;;;;;;;6.10;2.45;;;;;;;;;;7391897;19;20014;-76
2022/03/09 06:22:42;;;;;;;3.72;1.90;;;;;;;;;;7393146;19;20002;-77
2022/03/09 06:25:08;;;;;;;3.13;1.83;;;;;;;;;;7391481;19;20015;-76
2022/03/09 06:27:41;;;;;;;6.28;2.38;;;;;;;;;;7395965;19;20003;-76
2022/03/09 06:30:07;;;;;;;4.63;2.13;;;;;;;;;;7392056;19;20463;-76
2022/03/09 06:32:32;;;;;;;6.13;2.50;;;;;;;;;;7394548;19;20015;-75
2022/03/09 06:34:58;;;;;;;5.78;2.25;;;;;;;;;;7393736;19;20010;-76
2022/03/09 06:37:23;;;;;;;3.55;1.88;;;;;;;;;;7393159;19;20529;-76
2022/03/09 06:39:48;;;;;;;3.75;1.92;;;;;;;;;;7393425;19;20003;-76
2022/03/09 06:42:13;;;;;;;5.10;2.13;;;;;;;;;;7395115;19;20009;-77
2022/03/09 06:44:39;;;;;;;4.50;1.88;;;;;;;;;;7391577;19;20011;-75
2022/03/09 06:47:04;;;;;;;4.05;1.95;;;;;;;;;;7393328;19;20035;-76
2022/03/09 06:49:29;;;;;;;4.32;2.17;;;;;;;;;;7389828;19;20006;-76
2022/03/09 06:51:55;;;;;;;3.85;2.03;;;;;;;;;;7381652;19;20010;-76
2022/03/09 06:54:20;;;;;;;6.60;2.10;;;;;;;;;;7388879;19;20022;-76
2022/03/09 06:56:47;;;;;;;4.95;2.08;;;;;;;;;;7391289;19;20006;-76
2022/03/09 06:59:12;;;;;;;3.40;2.00;;;;;;;;;;7390345;19;20010;-76
2022/03/09 07:01:37;;;;;;;5.00;2.20;;;;;;;;;;7389314;19;19995;-76
2022/03/09 07:04:03;;;;;;;6.93;2.25;;;;;;;;;;7388823;19;20445;-75
2022/03/09 07:06:28;;;;;;;5.25;2.10;;;;;;;;;;7389695;19;20095;-75
2022/03/09 07:08:53;;;;;;;6.00;2.50;;;;;;;;;;7388877;19;20014;-75
2022/03/09 07:11:18;;;;;;;6.80;2.30;;;;;;;;;;7385716;19;20013;-76
2022/03/09 07:13:44;;;;;;;4.22;1.90;;;;;;;;;;7393371;19;20093;-76
2022/03/09 07:16:09;;;;;;;6.80;2.00;;;;;;;;;;7397715;19;20066;-75
2022/03/09 07:18:34;;;;;;;6.28;2.45;;;;;;;;;;7392392;19;20035;-75
2022/03/09 07:21:00;;;;;;;2.20;1.50;;;;;;;;;;7396378;19;20003;-76
2022/03/09 07:23:25;;;;;;;4.20;2.08;;;;;;;;;;7395206;19;20530;-76
2022/03/09 07:25:50;;;;;;;5.78;2.30;;;;;;;;;;7397320;19;20007;-77
2022/03/09 07:28:15;;;;;;;6.72;2.33;;;;;;;;;;7397245;19;20446;-76
2022/03/09 07:30:41;;;;;;;4.68;2.33;;;;;;;;;;7396983;19;20017;-77
2022/03/09 07:33:06;;;;;;;5.63;2.00;;;;;;;;;;7399381;19;20048;-77
2022/03/09 07:35:31;;;;;;;3.42;1.90;;;;;;;;;;7400052;19;20066;-77
2022/03/09 07:37:57;;;;;;;3.03;1.75;;;;;;;;;;7398187;19;20011;-77
2022/03/09 07:40:22;;;;;;;3.58;1.65;;;;;;;;;;7396897;19;20676;-77
2022/03/09 07:42:47;;;;;;;6.07;1.92;;;;;;;;;;7396739;19;19999;-76
2022/03/09 07:45:13;;;;;;;3.85;1.90;;;;;;;;;;7395648;19;20023;-76
2022/03/09 07:47:38;;;;;;;4.30;2.22;;;;;;;;;;7398058;19;20078;-75
2022/03/09 07:50:06;;;;;;;3.40;1.90;;;;;;;;;;7396996;19;20359;-75
2022/03/09 07:52:31;;;;;;;2.95;1.80;;;;;;;;;;7396134;19;20006;-75
2022/03/09 07:54:56;;;;;;;3.95;2.25;;;;;;;;;;7395095;19;19998;-77
2022/03/09 07:57:22;;;;;;;3.58;1.73;;;;;;;;;;7394064;19;19990;-77
2022/03/09 07:59:47;;;;;;;4.63;2.45;;;;;;;;;;7395993;19;20041;-76
2022/03/09 08:02:12;;;;;;;3.70;1.92;;;;;;;;;;7396517;19;20340;-76
2022/03/09 08:04:38;;;;;;;4.45;2.08;;;;;;;;;;7395211;19;20035;-76
2022/03/09 08:07:03;;;;;;;4.40;1.73;;;;;;;;;;7395489;19;20419;-76
2022/03/09 08:09:29;;;;;;;5.75;2.15;;;;;;;;;;7392845;19;20415;-77
2022/03/09 08:11:54;;;;;;;4.32;2.25;;;;;;;;;;7393148;19;20021;-75
2022/03/09 08:14:19;;;;;;;4.32;2.13;;;;;;;;;;7396590;19;20322;-76
2022/03/09 08:16:45;;;;;;;3.65;1.95;;;;;;;;;;7397227;19;20038;-76
2022/03/09 08:19:11;;;;;;;3.47;2.10;;;;;;;;;;7391930;19;20040;-75
2022/03/09 08:21:37;;;;;;;4.82;2.33;;;;;;;;;;7396368;19;20090;-75
2022/03/09 08:24:02;;;;;;;5.18;2.75;;;;;;;;;;7394315;19;20010;-75
2022/03/09 08:26:28;;;;;;;4.72;2.40;;;;;;;;;;7393154;19;20015;-77
2022/03/09 08:28:53;;;;;;;4.25;2.08;;;;;;;;;;7394785;19;20480;-76
2022/03/09 08:31:19;;;;;;;4.55;2.58;;;;;;;;;;7390394;19;20018;-76
2022/03/09 08:33:44;;;;;;;4.75;2.30;;;;;;;;;;7395141;19;20031;-75
2022/03/09 08:36:12;;;;;;;6.55;2.55;;;;;;;;;;7393386;19;20079;-75
2022/03/09 08:38:38;;;;;;;3.58;2.25;;;;;;;;;;7393571;19;20011;-78
2022/03/09 08:41:03;;;;;;;6.18;3.20;;;;;;;;;;7393392;19;20031;-77
2022/03/09 08:43:28;;;;;;;3.78;2.42;;;;;;;;;;7395994;19;20002;-76
2022/03/09 08:45:54;;;;;;;4.43;2.75;;;;;;;;;;7390321;19;20507;-75
2022/03/09 08:48:19;;;;;;;5.72;2.38;;;;;;;;;;7392256;19;20485;-75
2022/03/09 08:50:44;;;;;;;4.82;2.53;;;;;;;;;;7392372;19;20028;-78
2022/03/09 08:53:10;;;;;;;5.43;2.90;;;;;;;;;;7389932;19;20010;-79
2022/03/09 08:55:36;;;;;;;3.85;2.47;;;;;;;;;;7392134;19;20023;-78
2022/03/09 08:58:01;;;;;;;4.43;2.85;;;;;;;;;;7393943;19;20010;-76
2022/03/09 09:00:27;;;;;;;3.33;2.38;;;;;;;;;;7394082;19;20358;-76
2022/03/09 09:02:52;;;;;;;4.78;2.97;;;;;;;;;;7393166;19;20007;-77
2022/03/09 09:05:18;;;;;;;5.53;3.28;;;;;;;;;;7390260;19;20533;-75
2022/03/09 09:07:43;;;;;;;6.88;3.03;;;;;;;;;;7393223;19;20006;-76
2022/03/09 09:10:09;;;;;;;4.47;2.70;;;;;;;;;;7392698;19;20011;-76
2022/03/09 09:12:34;;;;;;;7.95;3.70;;;;;;;;;;7394187;19;20028;-77
2022/03/09 09:14:59;;;;;;;4.93;3.20;;;;;;;;;;7391431;19;20006;-77
2022/03/09 09:17:25;;;;;;;6.50;3.33;;;;;;;;;;7390554;19;20082;-76
2022/03/09 09:19:50;;;;;;;5.90;3.53;;;;;;;;;;7389543;19;20010;-76
2022/03/09 09:22:16;;;;;;;6.20;3.38;;;;;;;;;;7396964;19;20337;-76
2022/03/09 09:24:41;;;;;;;4.38;2.90;;;;;;;;;;7396516;19;20015;-76
2022/03/09 09:27:06;;;;;;;6.55;3.28;;;;;;;;;;7392344;19;20006;-76
2022/03/09 09:29:32;;;;;;;6.53;3.72;;;;;;;;;;7392868;19;20009;-77
2022/03/09 09:31:57;;;;;;;7.50;3.42;;;;;;;;;;7388622;19;20021;-76
2022/03/09 09:34:23;;;;;;;4.35;2.60;;;;;;;;;;7391446;19;20031;-76
2022/03/09 09:36:49;;;;;;;6.97;3.70;;;;;;;;;;7388652;19;20006;-77
2022/03/09 09:39:16;;;;;;;7.10;3.55;;;;;;;;;;7391967;19;20002;-76
2022/03/09 09:41:43;;;;;;;7.05;3.47;;;;;;;;;;7389812;19;20002;-77
2022/03/09 09:44:11;;;;;;;11.77;3.65;;;;;;;;;;7393379;19;20006;-76
2022/03/09 09:46:39;;;;;;;7.68;3.70;;;;;;;;;;7393776;19;19998;-76
2022/03/09 09:49:12;;;;;;;5.47;3.35;;;;;;;;;;7388695;19;20499;-77
2022/03/09 09:51:39;;;;;;;7.45;3.85;;;;;;;;;;7388513;19;20062;-76
2022/03/09 09:54:07;;;;;;;6.80;3.72;;;;;;;;;;7388197;19;20007;-76
2022/03/09 09:56:37;;;;;;;8.38;3.55;;;;;;;;;;7389748;19;20006;-76
2022/03/09 09:59:02;;;;;;;7.32;3.88;;;;;;;;;;7390517;19;20030;-76
2022/03/09 10:01:28;;;;;;;7.25;4.07;;;;;;;;;;7389453;19;20011;-76
2022/03/09 10:03:53;;;;;;;9.57;4.20;;;;;;;;;;7390566;19;20082;-77
2022/03/09 10:06:19;;;;;;;5.72;3.65;;;;;;;;;;7390380;19;20016;-76
2022/03/09 10:09:00;;;;;;;7.45;4.10;;;;;;;;;;7390088;19;20482;-77
2022/03/09 10:11:25;;;;;;;4.13;3.08;;;;;;;;;;7385734;19;20114;-76
2022/03/09 10:13:50;;;;;;;5.00;3.35;;;;;;;;;;7388207;19;20030;-77
2022/03/09 10:16:20;;;;;;;6.57;3.25;;;;;;;;;;7364981;19;20013;-76
2022/03/09 10:18:54;;;;;;;6.68;3.72;;;;;;;;;;7406644;19;20014;-76
2022/03/09 10:21:26;;;;;;;7.25;3.33;;;;;;;;;;7411791;19;20027;-76
2022/03/09 10:24:06;;;;;;;6.40;3.88;;;;;;;;;;7413204;19;20017;-76
2022/03/09 10:26:34;;;;;;;5.75;3.50;;;;;;;;;;7396842;19;20018;-76
2022/03/09 10:29:08;;;;;;;5.50;3.38;;;;;;;;;;7389615;19;20116;-77
2022/03/09 10:31:37;;;;;;;6.90;3.95;;;;;;;;;;7387103;19;20018;-76
2022/03/09 10:34:07;;;;;;;7.20;3.47;;;;;;;;;;7389464;19;19998;-76
2022/03/09 10:36:32;;;;;;;8.15;3.42;;;;;;;;;;7388115;19;20043;-76
2022/03/09 10:39:15;;;;;;;6.25;3.88;;;;;;;;;;7388330;19;20121;-76
2022/03/09 10:41:40;;;;;;;6.50;3.55;;;;;;;;;;7389731;19;20021;-76
2022/03/09 10:44:06;;;;;;;4.85;3.33;;;;;;;;;;7387402;19;20014;-76
2022/03/09 10:46:50;;;;;;;7.75;3.60;;;;;;;;;;7386412;19;20013;-76
2022/03/09 10:49:23;;;;;;;7.40;3.70;;;;;;;;;;7387556;19;20058;-76
2022/03/09 10:51:51;;;;;;;10.52;3.78;;;;;;;;;;7386838;19;20170;-76
2022/03/09 10:54:21;;;;;;;7.40;4.43;;;;;;;;;;7389646;19;20009;-76
2022/03/09 10:56:46;;;;;;;6.80;3.53;;;;;;;;;;7387536;19;20006;-76
2022/03/09 10:59:20;;;;;;;6.00;3.63;;;;;;;;;;7387189;19;20074;-76
2022/03/09 11:02:08;;;;;;;6.35;3.83;;;;;;;;;;7388697;19;20338;-76
2022/03/09 11:04:35;;;;;;;5.55;3.45;;;;;;;;;;7386871;19;20450;-76
2022/03/09 11:07:01;;;;;;;6.45;3.20;;;;;;;;;;7387780;19;20009;-77
2022/03/09 11:09:26;;;;;;;7.28;3.72;;;;;;;;;;7386157;19;20062;-76
2022/03/09 11:11:52;;;;;;;5.95;3.38;;;;;;;;;;7388051;19;20334;-76
2022/03/09 11:14:19;;;;;;;8.75;3.15;;;;;;;;;;7388585;19;20028;-76
2022/03/09 11:16:46;;;;;;;6.13;3.30;;;;;;;;;;7388736;19;20018;-76
2022/03/09 11:19:13;;;;;;;5.60;2.70;;;;;;;;;;7385919;19;20002;-77
2022/03/09 11:21:39;;;;;;;5.30;3.13;;;;;;;;;;7392071;19;20461;-79
2022/03/09 11:24:10;;;;;;;6.00;3.03;;;;;;;;;;7392953;19;20010;-73
2022/03/09 11:26:40;;;;;;;6.03;3.25;;;;;;;;;;7388369;19;20003;-72
2022/03/09 11:29:09;;;;;;;5.15;2.95;;;;;;;;;;7391024;19;20047;-77
2022/03/09 11:31:47;;;;;;;5.32;3.25;;;;;;;;;;7390460;19;20014;-80
2022/03/09 11:34:46;;;;;;;5.57;3.38;;;;;;;;;;7389797;19;20035;-79
2022/03/09 11:37:15;;;;;;;6.80;3.13;;;;;;;;;;7392651;19;20062;-79
2022/03/09 11:40:06;;;;;;;5.50;3.05;;;;;;;;;;7393714;19;20395;-79
2022/03/09 11:42:34;;;;;;;3.88;3.05;;;;;;;;;;7389198;19;20391;-76
2022/03/09 11:45:14;;;;;;;5.55;3.50;;;;;;;;;;7392137;19;20039;-80
2022/03/09 11:48:00;;;;;;;7.20;3.15;;;;;;;;;;7391954;19;20082;-79
2022/03/09 11:50:27;;;;;;;5.35;3.20;;;;;;;;;;7397551;19;20010;-76
2022/03/09 11:53:07;;;;;;;4.97;3.33;;;;;;;;;;7397250;19;20066;-80
2022/03/09 11:55:35;;;;;;;4.35;2.88;;;;;;;;;;7389526;19;20006;-78
2022/03/09 11:58:09;;;;;;;6.65;3.28;;;;;;;;;;7392217;19;20017;-79
2022/03/09 12:00:36;;;;;;;5.93;3.10;;;;;;;;;;7397575;19;20012;-78
2022/03/09 12:03:02;;;;;;;4.55;3.15;;;;;;;;;;7400121;19;20018;-79
2022/03/09 12:05:28;;;;;;;4.72;2.88;;;;;;;;;;7399677;19;19999;-79
2022/03/09 12:08:03;;;;;;;5.75;2.80;;;;;;;;;;7400938;19;20323;-76
2022/03/09 12:10:51;;;;;;;3.95;2.60;;;;;;;;;;7396134;19;20062;-77
2022/03/09 12:13:38;;;;;;;4.97;2.90;;;;;;;;;;7397863;19;20118;-77
2022/03/09 12:16:23;;;;;;;5.15;2.30;;;;;;;;;;7396718;19;20052;-77
2022/03/09 12:18:48;;;;;;;3.25;2.40;;;;;;;;;;7398264;19;20026;-77
2022/03/09 12:21:50;;;;;;;4.85;2.65;;;;;;;;;;7395636;19;20002;-76
2022/03/09 12:24:20;;;;;;;4.07;2.58;;;;;;;;;;7393655;19;20318;-76
2022/03/09 12:26:46;;;;;;;3.13;2.20;;;;;;;;;;7398639;19;20010;-77
2022/03/09 12:29:20;;;;;;;4.63;3.13;;;;;;;;;;7397871;19;20106;-76
2022/03/09 12:31:46;;;;;;;4.28;2.40;;;;;;;;;;7394002;19;20002;-76
2022/03/09 12:34:23;;;;;;;3.13;2.28;;;;;;;;;;7393953;19;20011;-76
2022/03/09 12:36:49;;;;;;;4.70;2.60;;;;;;;;;;7398784;19;20007;-77
2022/03/09 12:39:15;;;;;;;4.05;2.42;;;;;;;;;;7394731;19;20007;-77
2022/03/09 12:41:42;;;;;;;3.65;2.72;;;;;;;;;;7394900;19;20031;-77
2022/03/09 12:44:14;;;;;;;6.10;2.80;;;;;;;;;;7395543;19;20382;-77
2022/03/09 12:46:43;;;;;;;5.07;2.42;;;;;;;;;;7395723;19;20002;-77
2022/03/09 12:49:18;;;;;;;3.08;2.20;;;;;;;;;;7395357;19;20084;-77
2022/03/09 12:51:55;;;;;;;3.50;2.30;;;;;;;;;;7392300;19;20009;-76
2022/03/09 12:54:31;;;;;;;3.08;2.10;;;;;;;;;;7400365;19;20351;-77
2022/03/09 12:57:04;;;;;;;3.05;2.30;;;;;;;;;;7394317;19;20014;-77
2022/03/09 12:59:29;;;;;;;3.35;2.10;;;;;;;;;;7392165;19;20018;-76
2022/03/09 13:01:55;;;;;;;2.50;1.92;;;;;;;;;;7393088;19;20050;-77
2022/03/09 13:04:22;;;;;;;4.00;2.17;;;;;;;;;;7394919;19;20002;-77
2022/03/09 13:06:47;;;;;;;3.25;2.38;;;;;;;;;;7393056;19;20010;-77
2022/03/09 13:09:23;;;;;;;3.63;2.20;;;;;;;;;;7394696;19;20001;-77
2022/03/09 13:11:49;;;;;;;2.75;2.03;;;;;;;;;;7392077;19;20139;-77
2022/03/09 13:14:18;;;;;;;3.90;2.30;;;;;;;;;;7395767;19;20502;-77
2022/03/09 13:16:44;;;;;;;2.75;1.95;;;;;;;;;;7401452;19;20029;-77
2022/03/09 13:19:11;;;;;;;2.85;1.80;;;;;;;;;;7399162;19;20402;-77
2022/03/09 13:21:37;;;;;;;2.83;2.08;;;;;;;;;;7397544;19;20002;-78
2022/03/09 13:24:10;;;;;;;2.90;2.03;;;;;;;;;;7400402;19;20013;-77
2022/03/09 13:26:38;;;;;;;3.10;2.00;;;;;;;;;;7397050;19;20007;-77
2022/03/09 13:29:08;;;;;;;2.20;1.80;;;;;;;;;;7392485;19;20015;-77
2022/03/09 13:31:43;;;;;;;2.70;1.90;;;;;;;;;;7393452;19;20034;-77
2022/03/09 13:34:14;;;;;;;3.42;1.98;;;;;;;;;;7396131;19;20022;-78
2022/03/09 13:36:40;;;;;;;4.18;2.30;;;;;;;;;;7390424;19;20109;-78
2022/03/09 13:39:09;;;;;;;4.22;1.88;;;;;;;;;;7387802;19;20389;-76
2022/03/09 13:41:39;;;;;;;3.40;2.05;;;;;;;;;;7390540;19;20081;-76
2022/03/09 13:44:26;;;;;;;1.67;1.50;;;;;;;;;;7390386;19;20463;-76
2022/03/09 13:47:09;;;;;;;2.17;1.73;;;;;;;;;;7392151;19;20014;-76
2022/03/09 13:49:42;;;;;;;2.20;1.50;;;;;;;;;;7392621;19;20019;-76
2022/03/09 13:52:31;;;;;;;6.25;1.80;;;;;;;;;;7390295;19;20081;-75
2022/03/09 13:54:57;;;;;;;2.95;1.70;;;;;;;;;;7390799;19;20034;-75
2022/03/09 13:57:41;;;;;;;4.53;1.75;;;;;;;;;;7389301;19;20014;-75
2022/03/09 14:00:21;;;;;;;3.65;1.67;;;;;;;;;;7388023;19;20486;-75
2022/03/09 14:02:46;;;;;;;1.98;1.67;;;;;;;;;;7387663;19;20032;-75
2022/03/09 14:05:12;;;;;;;1.77;1.60;;;;;;;;;;7386102;19;20006;-76
2022/03/09 14:07:39;;;;;;;2.42;1.83;;;;;;;;;;7387517;19;20062;-75
2022/03/09 14:10:22;;;;;;;2.90;1.85;;;;;;;;;;7388926;19;20006;-75
2022/03/09 14:12:47;;;;;;;1.83;1.20;;;;;;;;;;7390292;19;20039;-76
2022/03/09 14:15:14;;;;;;;2.00;1.45;;;;;;;;;;7389407;19;20006;-75
2022/03/09 14:17:40;;;;;;;1.67;1.45;;;;;;;;;;7387278;19;20441;-76
2022/03/09 14:20:09;;;;;;;2.10;1.42;;;;;;;;;;7387618;19;20002;-75
2022/03/09 14:22:38;;;;;;;2.03;1.42;;;;;;;;;;7389010;19;20350;-75
2022/03/09 14:25:05;;;;;;;5.13;1.60;;;;;;;;;;7390521;19;20014;-76
2022/03/09 14:27:30;;;;;;;2.00;1.30;;;;;;;;;;7393454;19;19995;-76
2022/03/09 14:29:55;;;;;;;1.85;1.45;;;;;;;;;;7392758;19;20027;-76
2022/03/09 14:32:21;;;;;;;1.05;0.90;;;;;;;;;;7389544;19;19999;-77
2022/03/09 14:34:47;;;;;;;1.60;1.30;;;;;;;;;;7390770;19;20010;-76
2022/03/09 14:37:12;;;;;;;2.08;1.35;;;;;;;;;;7390152;19;20008;-76
2022/03/09 14:39:39;;;;;;;2.03;1.23;;;;;;;;;;7386943;19;20052;-75
2022/03/09 14:42:05;;;;;;;2.05;1.17;;;;;;;;;;7389091;19;20412;-76
2022/03/09 14:44:31;;;;;;;1.40;1.30;;;;;;;;;;7390667;19;20022;-77
2022/03/09 14:46:56;;;;;;;2.03;1.17;;;;;;;;;;7390661;19;20016;-78